SACO

Ingeniero Ambrosio Taravella Airport

Cordoba, Argentina
TAF SACO 211700Z 2118/2218 23010KT CAVOK TX18/2218Z TN02/2210Z BECMG 2203/2206 36010KT SCT030
Issued Valid From Valid To
Jun-21 @ 17:00 UTC
(an hour ago)
Jun-21 @ 18:00 UTC
(10 minutes ago)
Jun-22 @ 18:00 UTC
(in 24 hours)
Jun-21 @ 18:00 to Jun-22 @ 03:00
TAF SACO 211700Z 2118/2218 23010KT CAVOK TX18/2218Z TN02/2210Z
Wind Visibility Clouds
230° at 10 knots 10,000+ meters
  • No significant clouds
Becoming Jun-22 @ 03:00 to Jun-22 @ 18:00
BECMG 2203/2206 36010KT SCT030
Wind Visibility Clouds
360° at 10 knots 10,000+ meters
  • Scattered at 3,000' AGL
TAF SACO 211700Z 2118/2218 23010KT CAVOK TX18/2218Z TN02/2210Z BECMG 2203/2206 36010KT SCT030
Issued Jun-21 @ 17:00 UTC
(an hour ago)
Valid From Jun-21 @ 18:00 UTC
(10 minutes ago)
Valid To Jun-22 @ 18:00 UTC
(in 24 hours)
Jun-21 @ 18:00 - Jun-22 @ 03:00
Wind Visibility
230° at 10 knots 10,000+ meters
Clouds
  • No significant clouds
Becoming Jun-22 @ 03:00 - Jun-22 @ 18:00
Wind Visibility
360° at 10 knots 10,000+ meters
Clouds
  • Scattered at 3,000' AGL